TAF Text Data
IDs:
Format:
Raw Decoded Include METAR

Data at: 0238 UTC 29 Nov 2020

KMSL 282320Z 2900/2924 05004KT P6SM OVC250
  FM291800 13005KT P6SM OVC045
  FM292000 10005KT 6SM SHRA BR OVC009
  FM292300 05005KT 2SM SHRA BR OVC008